Terminal Aerodrome Forecast
Issued by NWS

Home | Current Version | Previous Version | Text Only | Print | Product List | Glossary On
Versions: 1 2 3 4 5 6 7 8 9 10 11 12 13 14 15 16 17 18
000
FTUS43 KICT 201735
TAFRSL
TAF
KRSL 201735Z 2018/2118 14015G22KT P6SM OVC250
     FM210200 12012KT P6SM -SHRA OVC050
     FM210600 11012KT P6SM -SHRA OVC025
     FM210900 10012KT P6SM -SHRA OVC015
     FM211100 10012KT P6SM -SHRA OVC008
     FM211300 12012KT 5SM -RA BR OVC004=

USA.gov is the U.S. government's official web portal to all federal, state and local government web resources and services.